Time;durP1;ratioP1;P1;durP2;ratioP2;P2;SDS_P1;SDS_P2;PMS_P1;PMS_P2;Temp;Humidity;BMP_temperature;BMP_pressure;BME280_temperature;BME280_humidity;BME280_pressure;Samples;Min_cycle;Max_cycle;Signal;HPM_P1;HPM_P2
2022/06/11 00:00:38;;;;;;;;;;;22.40;51.30;;;;;;5088393;28;19932;-61
2022/06/11 00:03:04;;;;;;;;;;;22.40;51.40;;;;;;5090080;28;19924;-61
2022/06/11 00:05:31;;;;;;;;;;;22.30;51.30;;;;;;5088943;28;19924;-61
2022/06/11 00:07:58;;;;;;;;;;;22.40;51.40;;;;;;5092818;28;20509;-61
2022/06/11 00:10:25;;;;;;;;;;;22.40;51.40;;;;;;5088369;28;19967;-61
2022/06/11 00:12:51;;;;;;;;;;;22.40;51.40;;;;;;5092238;28;19929;-61
2022/06/11 00:15:18;;;;;;;;;;;22.40;51.40;;;;;;5101641;28;19975;-61
2022/06/11 00:17:46;;;;;;;;;;;22.40;51.40;;;;;;5082770;28;19924;-61
2022/06/11 00:20:13;;;;;;;;;;;22.40;51.40;;;;;;5093185;28;19924;-62
2022/06/11 00:22:40;;;;;;;;;;;22.30;51.30;;;;;;5093623;28;19931;-62
2022/06/11 00:25:06;;;;;;;;;;;22.30;51.30;;;;;;5088018;28;19924;-62
2022/06/11 00:27:33;;;;;;;;;;;22.40;51.40;;;;;;5092263;28;19956;-62
2022/06/11 00:30:00;;;;;;;;;;;22.40;51.40;;;;;;5093031;28;19930;-62
2022/06/11 00:32:27;;;;;;;;;;;22.30;51.40;;;;;;5093957;28;20289;-61
2022/06/11 00:34:58;;;;;;;;;;;22.30;51.30;;;;;;5089330;28;20365;-61
2022/06/11 00:37:27;;;;;;;;;;;22.30;51.30;;;;;;5090496;28;19931;-61
2022/06/11 00:39:53;;;;;;;;;;;22.40;51.40;;;;;;5090076;28;19924;-62
2022/06/11 00:42:21;;;;;;;;;;;22.30;51.40;;;;;;5090612;28;20381;-62
2022/06/11 00:44:48;;;;;;;;;;;22.40;51.40;;;;;;5091045;28;19923;-62
2022/06/11 00:47:15;;;;;;;;;;;22.30;51.40;;;;;;5090243;28;19928;-65
2022/06/11 00:49:43;;;;;;;;;;;22.40;51.50;;;;;;5090748;28;19932;-62
2022/06/11 00:52:34;;;;;;;;;;;22.40;51.50;;;;;;5089905;28;19985;-61
2022/06/11 00:55:05;;;;;;;;;;;22.40;51.50;;;;;;5056486;28;19924;-62
2022/06/11 00:57:32;;;;;;;;;;;22.30;51.40;;;;;;5091623;28;19928;-62
2022/06/11 01:00:00;;;;;;;;;;;22.40;51.50;;;;;;5092067;28;19924;-62
2022/06/11 01:02:27;;;;;;;;;;;22.30;51.40;;;;;;5090610;28;19924;-63
2022/06/11 01:04:54;;;;;;;;;;;22.30;51.40;;;;;;5093783;28;20617;-62
2022/06/11 01:07:32;;;;;;;;;;;22.30;51.40;;;;;;5087721;28;19939;-62
2022/06/11 01:10:06;;;;;;;;;;;22.40;51.50;;;;;;5083545;28;19924;-62
2022/06/11 01:12:33;;;;;;;;;;;22.30;51.40;;;;;;5088064;28;19971;-62
2022/06/11 01:15:03;;;;;;;;;;;22.30;51.40;;;;;;5092538;28;19930;-62
2022/06/11 01:17:30;;;;;;;;;;;22.30;51.40;;;;;;5092629;28;19924;-62
2022/06/11 01:20:01;;;;;;;;;;;22.40;51.50;;;;;;5090895;28;20007;-61
2022/06/11 01:22:34;;;;;;;;;;;22.40;51.50;;;;;;5086585;28;19924;-62
2022/06/11 01:25:04;;;;;;;;;;;22.30;51.40;;;;;;5091173;28;20382;-62
2022/06/11 01:27:42;;;;;;;;;;;22.30;51.40;;;;;;5087811;28;20415;-62
2022/06/11 01:30:11;;;;;;;;;;;22.40;51.50;;;;;;5093409;28;20385;-63
2022/06/11 01:32:46;;;;;;;;;;;22.30;51.40;;;;;;5099422;28;19936;-62
2022/06/11 01:35:22;;;;;;;;;;;22.40;51.50;;;;;;5087921;28;19932;-62
2022/06/11 01:37:51;;;;;;;;;;;22.30;51.40;;;;;;5083842;28;19939;-62
2022/06/11 01:40:20;;;;;;;;;;;22.40;51.50;;;;;;5085576;28;20381;-62
2022/06/11 01:42:48;;;;;;;;;;;22.40;51.50;;;;;;5090783;28;19924;-67
2022/06/11 01:45:18;;;;;;;;;;;22.40;51.50;;;;;;5090420;28;19923;-61
2022/06/11 01:47:44;;;;;;;;;;;22.30;51.40;;;;;;5090709;28;19928;-62
2022/06/11 01:50:11;;;;;;;;;;;22.30;51.40;;;;;;5090127;28;20026;-62
2022/06/11 01:52:56;;;;;;;;;;;22.30;51.50;;;;;;5085128;28;20289;-61
2022/06/11 01:55:26;;;;;;;;;;;22.40;51.50;;;;;;5089456;28;20327;-61
2022/06/11 01:57:59;;;;;;;;;;;22.40;51.50;;;;;;5091913;28;20314;-62
2022/06/11 02:00:29;;;;;;;;;;;22.40;51.50;;;;;;5088959;28;19924;-62
2022/06/11 02:02:58;;;;;;;;;;;22.30;51.50;;;;;;5085853;28;19981;-62
2022/06/11 02:05:26;;;;;;;;;;;22.40;51.60;;;;;;5076128;28;20439;-62
2022/06/11 02:07:53;;;;;;;;;;;22.30;51.50;;;;;;5084687;28;19925;-62
2022/06/11 02:10:21;;;;;;;;;;;22.30;51.50;;;;;;5085700;28;19924;-62
2022/06/11 02:12:49;;;;;;;;;;;22.30;51.50;;;;;;5081401;28;20400;-62
2022/06/11 02:15:18;;;;;;;;;;;22.40;51.60;;;;;;5082038;28;19963;-61
2022/06/11 02:17:47;;;;;;;;;;;22.30;51.50;;;;;;5089668;28;19924;-61
2022/06/11 02:20:14;;;;;;;;;;;22.40;51.60;;;;;;5088401;28;19931;-61
2022/06/11 02:22:42;;;;;;;;;;;22.30;51.50;;;;;;5090644;28;20356;-62
2022/06/11 02:25:09;;;;;;;;;;;22.40;51.60;;;;;;5090893;28;20274;-61
2022/06/11 02:27:36;;;;;;;;;;;22.40;51.60;;;;;;5082977;28;20032;-61
2022/06/11 02:30:03;;;;;;;;;;;22.30;51.60;;;;;;5087270;28;19928;-61
2022/06/11 02:32:32;;;;;;;;;;;22.40;51.60;;;;;;5090362;28;19924;-61
2022/06/11 02:35:01;;;;;;;;;;;22.30;51.60;;;;;;5089158;28;19925;-61
2022/06/11 02:37:28;;;;;;;;;;;22.30;51.60;;;;;;5091891;28;20330;-62
2022/06/11 02:39:56;;;;;;;;;;;22.30;51.60;;;;;;5087733;28;19977;-62
2022/06/11 02:42:23;;;;;;;;;;;22.30;51.60;;;;;;5072078;28;19967;-61
2022/06/11 02:44:50;;;;;;;;;;;22.30;51.60;;;;;;5088821;28;20019;-62
2022/06/11 02:47:17;;;;;;;;;;;22.40;51.70;;;;;;5088198;28;20660;-62
2022/06/11 02:49:43;;;;;;;;;;;22.30;51.60;;;;;;5084797;28;19995;-62
2022/06/11 02:52:14;;;;;;;;;;;22.30;51.60;;;;;;5091059;28;20377;-63
2022/06/11 02:54:41;;;;;;;;;;;22.40;51.70;;;;;;5089638;28;19924;-61
2022/06/11 02:57:11;;;;;;;;;;;22.30;51.60;;;;;;5089930;28;19928;-62
2022/06/11 02:59:38;;;;;;;;;;;22.40;51.70;;;;;;5089736;28;20023;-62
2022/06/11 03:02:05;;;;;;;;;;;22.30;51.60;;;;;;5090446;28;19931;-62
2022/06/11 03:04:32;;;;;;;;;;;22.40;51.70;;;;;;5089092;28;19991;-61
2022/06/11 03:06:58;;;;;;;;;;;22.30;51.60;;;;;;5088931;28;19924;-62
2022/06/11 03:09:28;;;;;;;;;;;22.30;51.60;;;;;;5090386;28;19974;-62
2022/06/11 03:11:54;;;;;;;;;;;22.40;51.70;;;;;;5095761;28;20436;-61
2022/06/11 03:14:21;;;;;;;;;;;22.40;51.70;;;;;;5094570;28;19977;-62
2022/06/11 03:16:48;;;;;;;;;;;22.40;51.70;;;;;;5095448;28;20047;-61
2022/06/11 03:19:15;;;;;;;;;;;22.30;51.60;;;;;;5090193;28;19931;-62
2022/06/11 03:21:42;;;;;;;;;;;22.30;52.20;;;;;;5091855;28;19932;-61
2022/06/11 03:24:08;;;;;;;;;;;22.30;51.70;;;;;;5095286;28;19924;-62
2022/06/11 03:26:37;;;;;;;;;;;22.30;51.70;;;;;;5096024;28;19924;-61
2022/06/11 03:29:04;;;;;;;;;;;22.30;51.70;;;;;;5085626;28;19927;-61
2022/06/11 03:31:31;;;;;;;;;;;22.30;51.70;;;;;;5093050;28;20326;-61
2022/06/11 03:33:58;;;;;;;;;;;22.30;51.70;;;;;;5094147;28;19939;-61
2022/06/11 03:36:24;;;;;;;;;;;22.30;51.70;;;;;;5085277;28;19960;-61
2022/06/11 03:38:51;;;;;;;;;;;22.30;51.70;;;;;;5092892;28;20336;-62
2022/06/11 03:41:22;;;;;;;;;;;22.40;51.70;;;;;;5089442;28;19931;-62
2022/06/11 03:43:50;;;;;;;;;;;22.30;51.70;;;;;;5080624;28;19924;-61
2022/06/11 03:46:17;;;;;;;;;;;22.30;51.70;;;;;;5093199;28;19978;-61
2022/06/11 03:48:44;;;;;;;;;;;22.40;51.80;;;;;;5091704;28;19932;-61
2022/06/11 03:51:10;;;;;;;;;;;22.40;51.80;;;;;;5094599;28;19973;-61
2022/06/11 03:53:37;;;;;;;;;;;22.40;51.80;;;;;;5092790;28;19932;-61
2022/06/11 03:56:04;;;;;;;;;;;22.30;51.80;;;;;;5094283;28;19954;-61
2022/06/11 03:58:31;;;;;;;;;;;22.30;51.80;;;;;;5086040;28;19963;-61
2022/06/11 04:01:18;;;;;;;;;;;22.30;51.80;;;;;;5092434;28;19974;-61
2022/06/11 04:03:46;;;;;;;;;;;22.30;51.80;;;;;;5082906;28;20391;-62
2022/06/11 04:06:13;;;;;;;;;;;22.40;51.90;;;;;;5095514;28;19924;-61
2022/06/11 04:08:39;;;;;;;;;;;22.30;51.80;;;;;;5089590;28;19925;-61
2022/06/11 04:11:06;;;;;;;;;;;22.40;51.90;;;;;;5084709;28;19974;-62
2022/06/11 04:13:33;;;;;;;;;;;22.30;51.80;;;;;;5083578;28;19928;-61
2022/06/11 04:16:01;;;;;;;;;;;22.30;51.90;;;;;;5085210;28;20327;-61
2022/06/11 04:18:30;;;;;;;;;;;22.30;51.80;;;;;;5080408;28;20019;-61
2022/06/11 04:21:00;;;;;;;;;;;22.40;51.90;;;;;;5094521;28;19925;-61
2022/06/11 04:23:29;;;;;;;;;;;22.40;51.90;;;;;;5080032;28;19968;-61
2022/06/11 04:25:56;;;;;;;;;;;22.30;51.90;;;;;;5091110;28;19931;-61
2022/06/11 04:28:23;;;;;;;;;;;22.30;51.90;;;;;;5089308;28;19924;-61
2022/06/11 04:30:49;;;;;;;;;;;22.40;51.90;;;;;;5093348;28;19962;-62
2022/06/11 04:33:18;;;;;;;;;;;22.30;51.90;;;;;;5092137;28;19924;-62
2022/06/11 04:35:45;;;;;;;;;;;22.30;51.90;;;;;;5087900;28;19924;-61
2022/06/11 04:38:12;;;;;;;;;;;22.30;51.90;;;;;;5085000;28;19993;-61
2022/06/11 04:40:39;;;;;;;;;;;22.30;51.90;;;;;;5093780;28;19935;-61
2022/06/11 04:43:05;;;;;;;;;;;22.40;52.50;;;;;;5091532;28;19935;-62
2022/06/11 04:45:32;;;;;;;;;;;22.40;52.00;;;;;;5084222;28;19968;-62
2022/06/11 04:47:59;;;;;;;;;;;22.30;51.90;;;;;;5084822;28;19928;-61
2022/06/11 04:50:27;;;;;;;;;;;22.40;51.90;;;;;;5091545;28;19931;-64
2022/06/11 04:52:54;;;;;;;;;;;22.40;51.90;;;;;;5089596;28;19932;-61
2022/06/11 04:55:20;;;;;;;;;;;22.40;51.90;;;;;;5092681;28;19979;-61
2022/06/11 04:57:47;;;;;;;;;;;22.40;52.00;;;;;;5089032;28;19932;-61
2022/06/11 05:00:15;;;;;;;;;;;22.30;51.90;;;;;;5096770;28;19940;-62
2022/06/11 05:02:41;;;;;;;;;;;22.40;52.00;;;;;;5081428;28;19970;-63
2022/06/11 05:05:09;;;;;;;;;;;22.40;51.90;;;;;;5081995;28;19953;-62
2022/06/11 05:07:37;;;;;;;;;;;22.30;51.90;;;;;;5092378;28;19961;-62
2022/06/11 05:10:05;;;;;;;;;;;22.40;51.90;;;;;;5085179;28;20200;-62
2022/06/11 05:12:31;;;;;;;;;;;22.40;51.90;;;;;;5089521;28;19924;-61
2022/06/11 05:14:58;;;;;;;;;;;22.40;51.90;;;;;;5092617;28;19936;-61
2022/06/11 05:17:25;;;;;;;;;;;22.40;51.90;;;;;;5087961;28;19932;-61
2022/06/11 05:19:52;;;;;;;;;;;22.40;51.90;;;;;;5086486;28;19928;-67
2022/06/11 05:22:18;;;;;;;;;;;22.40;51.90;;;;;;5093207;28;19962;-62
2022/06/11 05:24:47;;;;;;;;;;;22.40;51.90;;;;;;5090699;28;20286;-62
2022/06/11 05:27:14;;;;;;;;;;;22.40;51.90;;;;;;5089891;28;19958;-62
2022/06/11 05:29:43;;;;;;;;;;;22.40;51.90;;;;;;5092280;28;19924;-62
2022/06/11 05:32:10;;;;;;;;;;;22.40;51.90;;;;;;5091572;28;19924;-62
2022/06/11 05:34:37;;;;;;;;;;;22.40;51.90;;;;;;5079527;28;19924;-62
2022/06/11 05:37:04;;;;;;;;;;;22.40;51.90;;;;;;5083365;28;19946;-62
2022/06/11 05:39:31;;;;;;;;;;;22.40;51.90;;;;;;5091626;28;20633;-62
2022/06/11 05:41:59;;;;;;;;;;;22.40;51.90;;;;;;5093037;28;20297;-62
2022/06/11 05:44:25;;;;;;;;;;;22.40;51.90;;;;;;5092251;28;19924;-62
2022/06/11 05:46:52;;;;;;;;;;;22.40;51.90;;;;;;5092032;28;20021;-62
2022/06/11 05:49:20;;;;;;;;;;;22.40;51.90;;;;;;5088849;28;20351;-63
2022/06/11 05:51:49;;;;;;;;;;;22.40;51.90;;;;;;5084214;28;19924;-62
2022/06/11 05:54:18;;;;;;;;;;;22.40;51.90;;;;;;5100180;28;19924;-62
2022/06/11 05:56:45;;;;;;;;;;;22.40;51.90;;;;;;5091967;28;19924;-62
2022/06/11 05:59:14;;;;;;;;;;;22.40;51.90;;;;;;5088566;28;19931;-62
2022/06/11 06:01:41;;;;;;;;;;;22.40;51.90;;;;;;5092020;28;20340;-62
2022/06/11 06:04:07;;;;;;;;;;;22.40;51.90;;;;;;5090242;28;19924;-62
2022/06/11 06:06:34;;;;;;;;;;;22.40;51.90;;;;;;5087238;28;19928;-62
2022/06/11 06:09:02;;;;;;;;;;;22.40;51.90;;;;;;5103637;28;20007;-62
2022/06/11 06:11:28;;;;;;;;;;;22.40;51.90;;;;;;5090839;28;19935;-62
2022/06/11 06:13:56;;;;;;;;;;;22.40;51.80;;;;;;5085242;28;19930;-62
2022/06/11 06:16:25;;;;;;;;;;;22.40;51.80;;;;;;5092099;28;19974;-62
2022/06/11 06:18:52;;;;;;;;;;;22.40;51.80;;;;;;5086827;28;19959;-63
2022/06/11 06:21:19;;;;;;;;;;;22.40;51.90;;;;;;5086787;28;20002;-62
2022/06/11 06:23:48;;;;;;;;;;;22.40;51.90;;;;;;5088902;28;19920;-62
2022/06/11 06:26:15;;;;;;;;;;;22.40;51.90;;;;;;5089730;28;20438;-62
2022/06/11 06:28:42;;;;;;;;;;;22.40;51.90;;;;;;5089892;28;19981;-62
2022/06/11 06:31:09;;;;;;;;;;;22.40;51.90;;;;;;5088186;28;19924;-62
2022/06/11 06:33:38;;;;;;;;;;;22.40;51.90;;;;;;5090677;28;19924;-62
2022/06/11 06:36:05;;;;;;;;;;;22.40;51.90;;;;;;5083542;28;19928;-62
2022/06/11 06:38:32;;;;;;;;;;;22.40;51.90;;;;;;5090654;28;19949;-62
2022/06/11 06:41:00;;;;;;;;;;;22.40;51.90;;;;;;5088650;28;20451;-62
2022/06/11 06:43:26;;;;;;;;;;;22.40;51.90;;;;;;5090325;28;20259;-62
2022/06/11 06:45:53;;;;;;;;;;;22.40;51.90;;;;;;5091096;28;19927;-62
2022/06/11 06:48:20;;;;;;;;;;;22.40;51.90;;;;;;5088711;28;19924;-62
2022/06/11 06:50:48;;;;;;;;;;;22.40;51.90;;;;;;5088295;28;20384;-63
2022/06/11 06:53:15;;;;;;;;;;;22.40;51.90;;;;;;5089670;28;20348;-62
2022/06/11 06:55:42;;;;;;;;;;;22.40;51.90;;;;;;5073772;28;19955;-62
2022/06/11 06:58:08;;;;;;;;;;;22.40;51.90;;;;;;5090218;28;19973;-62
2022/06/11 07:00:35;;;;;;;;;;;22.40;51.90;;;;;;5083544;28;19928;-62
2022/06/11 07:03:02;;;;;;;;;;;22.40;51.90;;;;;;5089939;28;19924;-62
2022/06/11 07:05:28;;;;;;;;;;;22.40;51.90;;;;;;5086625;28;19924;-62
2022/06/11 07:07:57;;;;;;;;;;;22.40;51.90;;;;;;5089696;28;20391;-62
2022/06/11 07:10:24;;;;;;;;;;;22.40;51.90;;;;;;5084626;28;19928;-62
2022/06/11 07:12:50;;;;;;;;;;;22.40;51.90;;;;;;5088262;28;19979;-62
2022/06/11 07:15:17;;;;;;;;;;;22.40;51.90;;;;;;5080930;28;19931;-62
2022/06/11 07:17:44;;;;;;;;;;;22.40;51.90;;;;;;5090209;28;19924;-62
2022/06/11 07:20:12;;;;;;;;;;;22.40;51.90;;;;;;5090576;28;19928;-62
2022/06/11 07:22:39;;;;;;;;;;;22.40;51.90;;;;;;5087231;28;19924;-62
2022/06/11 07:25:08;;;;;;;;;;;22.40;51.90;;;;;;5090235;28;19975;-62
2022/06/11 07:27:35;;;;;;;;;;;22.40;51.90;;;;;;5087088;28;19954;-62
2022/06/11 07:30:04;;;;;;;;;;;22.40;51.90;;;;;;5085801;28;19928;-62
2022/06/11 07:32:35;;;;;;;;;;;22.40;51.90;;;;;;5088075;28;19951;-62
2022/06/11 07:35:01;;;;;;;;;;;22.50;52.00;;;;;;5088309;28;20342;-62
2022/06/11 07:37:28;;;;;;;;;;;22.50;52.00;;;;;;5086036;28;19963;-62
2022/06/11 07:39:55;;;;;;;;;;;22.40;51.90;;;;;;5089276;28;19969;-62
2022/06/11 07:42:23;;;;;;;;;;;22.40;51.90;;;;;;5091265;28;19978;-63
2022/06/11 07:44:50;;;;;;;;;;;22.40;51.90;;;;;;5087506;28;19924;-61
2022/06/11 07:47:53;;;;;;;;;;;22.40;51.90;;;;;;5088362;28;19942;-61
2022/06/11 07:50:04;;;;;;;;;;;22.50;52.00;;;;;;5074294;28;19924;-62
2022/06/11 07:52:31;;;;;;;;;;;22.40;51.90;;;;;;5087946;28;19924;-62
2022/06/11 07:54:58;;;;;;;;;;;22.50;52.00;;;;;;5087174;28;19973;-62
2022/06/11 07:57:27;;;;;;;;;;;22.50;52.00;;;;;;5084156;28;20269;-62
2022/06/11 07:59:54;;;;;;;;;;;22.40;51.90;;;;;;5085966;28;19924;-61
2022/06/11 08:02:20;;;;;;;;;;;22.50;52.00;;;;;;5090317;28;19924;-61
2022/06/11 08:04:47;;;;;;;;;;;22.40;51.90;;;;;;5091270;28;19924;-61
2022/06/11 08:07:14;;;;;;;;;;;22.50;52.00;;;;;;5091302;28;20423;-61
2022/06/11 08:09:40;;;;;;;;;;;22.50;52.00;;;;;;5092048;28;19930;-61
2022/06/11 08:12:08;;;;;;;;;;;22.50;52.00;;;;;;5095103;28;19925;-61
2022/06/11 08:14:36;;;;;;;;;;;22.40;51.90;;;;;;5088371;28;19924;-61
2022/06/11 08:17:03;;;;;;;;;;;22.50;52.00;;;;;;5091933;28;19923;-61
2022/06/11 08:19:30;;;;;;;;;;;22.50;52.00;;;;;;5101181;27;19980;-61
2022/06/11 08:21:56;;;;;;;;;;;22.50;52.00;;;;;;5092410;28;20305;-61
2022/06/11 08:24:23;;;;;;;;;;;22.50;52.00;;;;;;5091843;28;19924;-61
2022/06/11 08:26:50;;;;;;;;;;;22.50;52.00;;;;;;5089870;28;19924;-61
2022/06/11 08:29:17;;;;;;;;;;;22.50;52.00;;;;;;5083576;28;20241;-61
2022/06/11 08:31:45;;;;;;;;;;;22.50;52.00;;;;;;5080069;28;19929;-61
2022/06/11 08:34:12;;;;;;;;;;;22.50;52.00;;;;;;5075786;28;19929;-61
2022/06/11 08:36:38;;;;;;;;;;;22.50;52.10;;;;;;5096065;28;19924;-61
2022/06/11 08:39:05;;;;;;;;;;;22.50;52.10;;;;;;5081145;28;19974;-61
2022/06/11 08:41:33;;;;;;;;;;;22.50;52.10;;;;;;5084391;28;19924;-61
2022/06/11 08:44:00;;;;;;;;;;;22.50;52.10;;;;;;5089463;28;20023;-62
2022/06/11 08:46:27;;;;;;;;;;;22.50;52.10;;;;;;5092693;28;19955;-61
2022/06/11 08:48:58;;;;;;;;;;;22.50;52.10;;;;;;5087268;28;20328;-62
2022/06/11 08:51:26;;;;;;;;;;;22.50;52.10;;;;;;5074977;28;19967;-66
2022/06/11 08:53:53;;;;;;;;;;;22.50;52.10;;;;;;5091674;28;20335;-64
2022/06/11 08:56:21;;;;;;;;;;;22.50;52.10;;;;;;5083551;28;19924;-65
2022/06/11 08:58:52;;;;;;;;;;;22.50;52.20;;;;;;5089165;28;19935;-65
2022/06/11 09:01:22;;;;;;;;;;;22.50;52.20;;;;;;5084385;28;20418;-64
2022/06/11 09:04:00;;;;;;;;;;;22.60;52.20;;;;;;5094170;28;19966;-64
2022/06/11 09:06:31;;;;;;;;;;;22.50;52.20;;;;;;5091373;28;20301;-60
2022/06/11 09:09:00;;;;;;;;;;;22.60;52.40;;;;;;5092415;28;19928;-60
2022/06/11 09:11:32;;;;;;;;;;;22.50;52.10;;;;;;5085867;28;19985;-60
2022/06/11 09:14:06;;;;;;;;;;;22.50;51.70;;;;;;5088623;28;19931;-60
2022/06/11 09:16:37;;;;;;;;;;;22.60;51.50;;;;;;5090658;28;20308;-60
2022/06/11 09:19:19;;;;;;;;;;;22.50;51.10;;;;;;5088866;28;19931;-60
2022/06/11 09:21:51;;;;;;;;;;;22.50;50.80;;;;;;5068153;28;20492;-60
2022/06/11 09:24:23;;;;;;;;;;;22.40;50.60;;;;;;5086933;28;20038;-60
2022/06/11 09:26:51;;;;;;;;;;;22.40;50.30;;;;;;5089515;28;19936;-60
2022/06/11 09:29:21;;;;;;;;;;;22.40;50.30;;;;;;5088716;28;19935;-60
2022/06/11 09:31:48;;;;;;;;;;;22.40;50.30;;;;;;5087592;28;20014;-60
2022/06/11 09:34:16;;;;;;;;;;;22.40;50.20;;;;;;5082019;28;20326;-60
2022/06/11 09:36:43;;;;;;;;;;;22.40;49.90;;;;;;5085792;28;19924;-60
2022/06/11 09:39:15;;;;;;;;;;;22.40;49.60;;;;;;5088603;28;20389;-60
2022/06/11 09:41:43;;;;;;;;;;;22.40;49.50;;;;;;5098571;28;19973;-60
2022/06/11 09:44:14;;;;;;;;;;;22.30;49.30;;;;;;5093880;28;19982;-61
2022/06/11 09:46:42;;;;;;;;;;;22.30;49.20;;;;;;5088675;28;20335;-60
2022/06/11 09:49:13;;;;;;;;;;;22.30;49.10;;;;;;5089545;28;19947;-60
2022/06/11 09:51:42;;;;;;;;;;;22.30;49.10;;;;;;5080864;28;19931;-59
2022/06/11 09:54:16;;;;;;;;;;;22.30;49.00;;;;;;5080408;28;19928;-60
2022/06/11 09:56:44;;;;;;;;;;;22.30;48.90;;;;;;5078761;28;20358;-61
2022/06/11 09:59:19;;;;;;;;;;;22.30;48.70;;;;;;5084289;28;20445;-60
2022/06/11 10:01:48;;;;;;;;;;;22.30;48.50;;;;;;5088098;28;19955;-64
2022/06/11 10:04:15;;;;;;;;;;;22.20;48.20;;;;;;5081350;28;19931;-64
2022/06/11 10:06:42;;;;;;;;;;;22.30;48.20;;;;;;5081749;28;19924;-69
2022/06/11 10:09:11;;;;;;;;;;;22.30;48.10;;;;;;5080742;28;20063;-64
2022/06/11 10:11:41;;;;;;;;;;;22.20;47.70;;;;;;5081402;28;19932;-63
2022/06/11 10:16:51;;;;;;;;;;;22.30;47.80;;;;;;5069609;28;20451;-63
2022/06/11 10:19:19;;;;;;;;;;;22.20;47.40;;;;;;5090084;28;19935;-63
2022/06/11 10:21:49;;;;;;;;;;;22.30;47.40;;;;;;5089471;28;19931;-63
2022/06/11 10:24:16;;;;;;;;;;;22.20;47.10;;;;;;5085355;28;19928;-64
2022/06/11 10:26:48;;;;;;;;;;;22.30;47.30;;;;;;5077004;28;19924;-64
2022/06/11 10:29:17;;;;;;;;;;;22.30;46.70;;;;;;5088694;28;19924;-68
2022/06/11 10:31:45;;;;;;;;;;;22.30;46.30;;;;;;5084269;28;19947;-64
2022/06/11 10:34:12;;;;;;;;;;;22.30;46.50;;;;;;5090645;28;20324;-64
2022/06/11 10:36:40;;;;;;;;;;;22.30;46.50;;;;;;5094422;28;19924;-64
2022/06/11 10:39:11;;;;;;;;;;;22.30;46.70;;;;;;5089540;28;19924;-65
2022/06/11 10:41:38;;;;;;;;;;;22.30;46.70;;;;;;5093633;28;19931;-66
2022/06/11 10:44:12;;;;;;;;;;;22.30;46.50;;;;;;5080048;28;19931;-67
2022/06/11 10:46:39;;;;;;;;;;;22.30;46.40;;;;;;5081484;28;20313;-66
2022/06/11 10:49:08;;;;;;;;;;;22.30;46.20;;;;;;5083383;28;19941;-66
2022/06/11 10:51:35;;;;;;;;;;;22.30;46.40;;;;;;5086641;28;19924;-61
2022/06/11 10:54:03;;;;;;;;;;;22.30;46.20;;;;;;5083192;28;19924;-62
2022/06/11 10:56:48;;;;;;;;;;;22.30;46.30;;;;;;5086775;28;20026;-62
2022/06/11 10:59:18;;;;;;;;;;;22.30;46.10;;;;;;5083170;28;19960;-61
2022/06/11 11:01:47;;;;;;;;;;;22.30;46.20;;;;;;5087143;28;19925;-61
2022/06/11 11:04:27;;;;;;;;;;;22.30;46.10;;;;;;5079823;28;20322;-62
2022/06/11 11:07:07;;;;;;;;;;;22.30;46.20;;;;;;5084837;28;20297;-60
2022/06/11 11:09:34;;;;;;;;;;;22.30;46.30;;;;;;5084314;28;20009;-61
2022/06/11 11:12:01;;;;;;;;;;;22.30;46.30;;;;;;5085381;28;19936;-61
2022/06/11 11:14:33;;;;;;;;;;;22.30;46.50;;;;;;5080968;28;19978;-64
2022/06/11 11:16:59;;;;;;;;;;;22.30;46.50;;;;;;5069672;28;20283;-65
2022/06/11 11:19:27;;;;;;;;;;;22.30;46.70;;;;;;5100527;28;19931;-66
2022/06/11 11:21:54;;;;;;;;;;;22.40;46.80;;;;;;5083808;28;19924;-66
2022/06/11 11:24:21;;;;;;;;;;;22.40;46.70;;;;;;5083133;28;20023;-66
2022/06/11 11:26:49;;;;;;;;;;;22.40;46.70;;;;;;5091438;28;19928;-66
2022/06/11 11:29:16;;;;;;;;;;;22.40;46.70;;;;;;5087145;28;19931;-66
2022/06/11 11:31:46;;;;;;;;;;;22.40;46.80;;;;;;5090236;28;19974;-65
2022/06/11 11:34:14;;;;;;;;;;;22.40;46.80;;;;;;5083107;28;19931;-65
2022/06/11 11:36:41;;;;;;;;;;;22.40;46.90;;;;;;5093334;28;19932;-64
2022/06/11 11:39:28;;;;;;;;;;;22.40;46.90;;;;;;5086979;28;19924;-65
2022/06/11 11:42:02;;;;;;;;;;;22.50;47.10;;;;;;5089432;28;19924;-65
2022/06/11 11:44:29;;;;;;;;;;;22.40;47.00;;;;;;5093368;28;19977;-65
2022/06/11 11:46:59;;;;;;;;;;;22.40;47.00;;;;;;5092649;28;19931;-64
2022/06/11 11:49:28;;;;;;;;;;;22.40;46.90;;;;;;5091759;28;19924;-65
2022/06/11 11:51:55;;;;;;;;;;;22.50;47.00;;;;;;5093477;28;19924;-64
2022/06/11 11:54:23;;;;;;;;;;;22.50;47.00;;;;;;5090448;28;20008;-66
2022/06/11 11:56:50;;;;;;;;;;;22.50;46.90;;;;;;5094627;28;19927;-66
2022/06/11 11:59:19;;;;;;;;;;;22.50;46.80;;;;;;5081805;28;19924;-66
2022/06/11 12:01:46;;;;;;;;;;;22.50;46.70;;;;;;5089192;28;20377;-61
2022/06/11 12:04:17;;;;;;;;;;;22.50;46.80;;;;;;5096612;28;19943;-62
2022/06/11 12:06:45;;;;;;;;;;;22.60;46.20;;;;;;5080950;28;20015;-62
2022/06/11 12:09:19;;;;;;;;;;;22.50;46.70;;;;;;5095972;28;20301;-66
2022/06/11 12:11:54;;;;;;;;;;;22.50;46.60;;;;;;5081850;28;19932;-63
2022/06/11 12:14:22;;;;;;;;;;;22.50;46.60;;;;;;5088648;28;19924;-62
2022/06/11 12:16:51;;;;;;;;;;;22.60;46.80;;;;;;5089413;28;20461;-62
2022/06/11 12:19:23;;;;;;;;;;;22.50;46.70;;;;;;5099637;28;20278;-62
2022/06/11 12:21:51;;;;;;;;;;;22.60;46.70;;;;;;5090505;28;20058;-62
2022/06/11 12:24:19;;;;;;;;;;;22.60;46.70;;;;;;5090990;28;19928;-62
2022/06/11 12:26:47;;;;;;;;;;;22.60;46.70;;;;;;5083285;28;19931;-62
2022/06/11 12:29:14;;;;;;;;;;;22.60;46.60;;;;;;5093146;28;19924;-63
2022/06/11 12:31:41;;;;;;;;;;;22.60;46.10;;;;;;5102722;28;19924;-62
2022/06/11 12:34:10;;;;;;;;;;;22.60;46.20;;;;;;5093636;28;19954;-63
2022/06/11 12:36:42;;;;;;;;;;;22.60;46.10;;;;;;5091238;28;20399;-62
2022/06/11 12:39:10;;;;;;;;;;;22.60;45.90;;;;;;5089334;28;19974;-62
2022/06/11 12:41:40;;;;;;;;;;;22.60;45.80;;;;;;5086408;28;19944;-62
2022/06/11 12:44:16;;;;;;;;;;;22.60;45.90;;;;;;5092098;28;19928;-62
2022/06/11 12:46:43;;;;;;;;;;;22.60;45.70;;;;;;5089000;28;19928;-62
2022/06/11 12:49:13;;;;;;;;;;;22.70;45.80;;;;;;5084277;28;19928;-63
2022/06/11 12:51:45;;;;;;;;;;;22.60;45.80;;;;;;5090254;28;19935;-62
2022/06/11 12:54:13;;;;;;;;;;;22.60;45.60;;;;;;5090572;28;20328;-62
2022/06/11 12:56:44;;;;;;;;;;;22.60;45.80;;;;;;5082266;28;19936;-62
2022/06/11 12:59:14;;;;;;;;;;;22.70;46.00;;;;;;5091914;28;20351;-62
2022/06/11 13:01:43;;;;;;;;;;;22.70;46.00;;;;;;5091471;28;19924;-63
2022/06/11 13:04:30;;;;;;;;;;;22.70;46.00;;;;;;5083907;28;20404;-62
2022/06/11 13:07:12;;;;;;;;;;;22.70;46.70;;;;;;5079367;28;20323;-62
2022/06/11 13:09:50;;;;;;;;;;;22.70;46.10;;;;;;5092241;28;19974;-62
2022/06/11 13:12:24;;;;;;;;;;;22.70;46.30;;;;;;5078749;28;19924;-62
2022/06/11 13:15:03;;;;;;;;;;;22.70;46.30;;;;;;5088951;28;19932;-62
2022/06/11 13:17:44;;;;;;;;;;;22.70;46.20;;;;;;5088575;28;20290;-62
2022/06/11 13:20:13;;;;;;;;;;;22.70;46.30;;;;;;5090330;28;19925;-62
2022/06/11 13:22:41;;;;;;;;;;;22.70;46.40;;;;;;5080186;28;20393;-62
2022/06/11 13:25:13;;;;;;;;;;;22.70;46.30;;;;;;5080047;28;19971;-62
2022/06/11 13:27:42;;;;;;;;;;;22.70;46.20;;;;;;5078672;28;20579;-62
2022/06/11 13:30:16;;;;;;;;;;;22.70;46.30;;;;;;5087930;28;19931;-62
2022/06/11 13:32:44;;;;;;;;;;;22.70;46.20;;;;;;5095136;28;19932;-62
2022/06/11 13:35:17;;;;;;;;;;;22.70;46.20;;;;;;5080698;28;19970;-62
2022/06/11 13:37:47;;;;;;;;;;;22.70;46.30;;;;;;5074996;28;19929;-62
2022/06/11 13:40:21;;;;;;;;;;;22.80;46.40;;;;;;5086949;28;19931;-61
2022/06/11 13:42:50;;;;;;;;;;;22.70;46.90;;;;;;5078909;28;19925;-63
2022/06/11 13:45:23;;;;;;;;;;;22.80;46.40;;;;;;5081105;28;19974;-62
2022/06/11 13:47:54;;;;;;;;;;;22.80;46.50;;;;;;5086855;28;19928;-62
2022/06/11 13:50:27;;;;;;;;;;;22.80;46.60;;;;;;5083535;28;19924;-63
2022/06/11 13:55:41;;;;;;;;;;;22.80;46.60;;;;;;5083207;28;20020;-62
2022/06/11 13:58:13;;;;;;;;;;;22.80;46.60;;;;;;5087340;28;19924;-62
2022/06/11 14:00:43;;;;;;;;;;;22.70;46.70;;;;;;5090415;28;20420;-61
2022/06/11 14:03:20;;;;;;;;;;;22.80;46.70;;;;;;5090654;28;19928;-61
2022/06/11 14:05:47;;;;;;;;;;;22.70;46.60;;;;;;5083651;28;20022;-62
2022/06/11 14:08:14;;;;;;;;;;;22.70;46.60;;;;;;5085094;28;19927;-62
2022/06/11 14:10:43;;;;;;;;;;;22.80;46.70;;;;;;5088998;28;19935;-62
2022/06/11 14:13:10;;;;;;;;;;;22.70;46.60;;;;;;5088907;28;19932;-62
2022/06/11 14:15:41;;;;;;;;;;;22.70;46.70;;;;;;5087771;28;20016;-61
2022/06/11 14:18:42;;;;;;;;;;;22.70;47.30;;;;;;5083808;28;19973;-62
2022/06/11 14:21:30;;;;;;;;;;;22.70;46.60;;;;;;5090643;28;19924;-62
2022/06/11 14:23:57;;;;;;;;;;;22.70;46.70;;;;;;5084421;28;20362;-62
2022/06/11 14:26:43;;;;;;;;;;;22.70;46.70;;;;;;5091621;28;19931;-61
2022/06/11 14:29:17;;;;;;;;;;;22.70;46.70;;;;;;5085117;28;19924;-62
2022/06/11 14:31:52;;;;;;;;;;;22.70;46.70;;;;;;5075267;28;19931;-62